sensor_id;sensor_type;location;lat;lon;timestamp;pressure;altitude;pressure_sealevel;temperature;humidity
41312;BME280;27061;41.648;24.568;2023-04-10T00:01:07;85528.59;;;3.13;69.55
41312;BME280;27061;41.648;24.568;2023-04-10T00:03:34;85541.69;;;3.30;70.44
41312;BME280;27061;41.648;24.568;2023-04-10T00:06:03;85477.72;;;2.77;70.28
41312;BME280;27061;41.648;24.568;2023-04-10T00:08:30;85488.75;;;2.89;70.74
41312;BME280;27061;41.648;24.568;2023-04-10T00:10:57;85475.09;;;2.89;70.82
41312;BME280;27061;41.648;24.568;2023-04-10T00:13:25;85729.53;;;4.79;71.55
41312;BME280;27061;41.648;24.568;2023-04-10T00:15:52;85512.13;;;3.09;71.08
41312;BME280;27061;41.648;24.568;2023-04-10T00:18:19;85504.53;;;2.97;71.11
41312;BME280;27061;41.648;24.568;2023-04-10T00:20:47;85659.19;;;4.03;72.37
41312;BME280;27061;41.648;24.568;2023-04-10T00:23:14;85626.28;;;3.91;71.11
41312;BME280;27061;41.648;24.568;2023-04-10T00:25:41;85613.28;;;3.91;71.27
41312;BME280;27061;41.648;24.568;2023-04-10T00:28:08;85514.88;;;3.07;70.87
41312;BME280;27061;41.648;24.568;2023-04-10T00:30:35;85725.38;;;4.70;69.92
41312;BME280;27061;41.648;24.568;2023-04-10T00:33:02;85581.94;;;3.14;70.13
41312;BME280;27061;41.648;24.568;2023-04-10T00:35:29;85731.97;;;4.28;71.31
41312;BME280;27061;41.648;24.568;2023-04-10T00:37:56;85543.66;;;3.18;68.52
41312;BME280;27061;41.648;24.568;2023-04-10T00:40:24;85552.03;;;3.38;68.23
41312;BME280;27061;41.648;24.568;2023-04-10T00:42:51;85704.00;;;4.44;69.98
41312;BME280;27061;41.648;24.568;2023-04-10T00:45:18;85490.66;;;2.71;68.29
41312;BME280;27061;41.648;24.568;2023-04-10T00:47:46;85705.97;;;4.31;69.22
41312;BME280;27061;41.648;24.568;2023-04-10T00:50:38;85702.56;;;4.33;69.92
41312;BME280;27061;41.648;24.568;2023-04-10T00:53:05;85600.06;;;3.61;70.48
41312;BME280;27061;41.648;24.568;2023-04-10T00:55:33;85701.97;;;4.51;69.69
41312;BME280;27061;41.648;24.568;2023-04-10T00:58:00;85619.34;;;3.82;69.68
41312;BME280;27061;41.648;24.568;2023-04-10T01:00:27;85468.75;;;2.63;68.63
41312;BME280;27061;41.648;24.568;2023-04-10T01:02:54;85558.91;;;3.45;68.53
41312;BME280;27061;41.648;24.568;2023-04-10T01:05:22;85505.16;;;2.85;68.59
41312;BME280;27061;41.648;24.568;2023-04-10T01:11:01;85686.06;;;4.27;66.23
41312;BME280;27061;41.648;24.568;2023-04-10T01:13:40;85697.72;;;4.27;67.16
41312;BME280;27061;41.648;24.568;2023-04-10T01:19:06;85686.69;;;4.15;67.25
41312;BME280;27061;41.648;24.568;2023-04-10T01:21:38;85604.09;;;3.48;66.31
41312;BME280;27061;41.648;24.568;2023-04-10T01:27:08;85689.44;;;4.17;66.27
41312;BME280;27061;41.648;24.568;2023-04-10T01:29:43;85550.38;;;3.01;64.84
41312;BME280;27061;41.648;24.568;2023-04-10T01:32:15;85461.50;;;2.17;66.65
41312;BME280;27061;41.648;24.568;2023-04-10T01:34:45;85481.31;;;2.17;66.21
41312;BME280;27061;41.648;24.568;2023-04-10T01:37:22;85474.56;;;2.27;66.54
41312;BME280;27061;41.648;24.568;2023-04-10T01:39:53;85435.22;;;1.79;65.73
41312;BME280;27061;41.648;24.568;2023-04-10T01:42:24;85704.03;;;3.53;66.76
41312;BME280;27061;41.648;24.568;2023-04-10T01:44:53;85685.56;;;3.54;66.46
41312;BME280;27061;41.648;24.568;2023-04-10T01:47:22;85602.25;;;2.90;66.42
41312;BME280;27061;41.648;24.568;2023-04-10T01:49:50;85596.78;;;2.92;66.26
41312;BME280;27061;41.648;24.568;2023-04-10T01:52:19;85434.19;;;1.46;66.72
41312;BME280;27061;41.648;24.568;2023-04-10T01:54:53;85482.56;;;2.04;65.33
41312;BME280;27061;41.648;24.568;2023-04-10T01:57:29;85431.47;;;1.46;67.06
41312;BME280;27061;41.648;24.568;2023-04-10T01:59:58;85689.00;;;3.56;68.17
41312;BME280;27061;41.648;24.568;2023-04-10T02:02:32;85572.94;;;2.29;67.32
41312;BME280;27061;41.648;24.568;2023-04-10T02:04:59;85408.19;;;1.39;67.39
41312;BME280;27061;41.648;24.568;2023-04-10T02:07:42;85600.75;;;2.79;67.14
41312;BME280;27061;41.648;24.568;2023-04-10T02:10:18;85673.97;;;3.61;66.78
41312;BME280;27061;41.648;24.568;2023-04-10T02:12:54;85683.41;;;3.44;66.51
41312;BME280;27061;41.648;24.568;2023-04-10T02:15:26;85634.06;;;3.32;65.33
41312;BME280;27061;41.648;24.568;2023-04-10T02:18:00;85664.81;;;3.30;68.16
41312;BME280;27061;41.648;24.568;2023-04-10T02:20:30;85580.34;;;2.88;66.11
41312;BME280;27061;41.648;24.568;2023-04-10T02:22:58;85642.19;;;3.24;66.50
41312;BME280;27061;41.648;24.568;2023-04-10T02:25:33;85658.00;;;3.34;66.04
41312;BME280;27061;41.648;24.568;2023-04-10T02:28:04;85672.56;;;3.54;66.41
41312;BME280;27061;41.648;24.568;2023-04-10T02:30:31;85558.50;;;2.90;65.92
41312;BME280;27061;41.648;24.568;2023-04-10T02:32:59;85425.03;;;1.86;66.29
41312;BME280;27061;41.648;24.568;2023-04-10T02:35:29;85609.00;;;2.83;67.79
41312;BME280;27061;41.648;24.568;2023-04-10T02:37:56;85401.38;;;1.40;67.56
41312;BME280;27061;41.648;24.568;2023-04-10T02:40:23;85488.63;;;1.97;66.90
41312;BME280;27061;41.648;24.568;2023-04-10T02:43:11;85540.78;;;2.25;67.63
41312;BME280;27061;41.648;24.568;2023-04-10T02:45:39;85501.63;;;2.02;69.03
41312;BME280;27061;41.648;24.568;2023-04-10T02:48:09;85391.13;;;1.37;69.86
41312;BME280;27061;41.648;24.568;2023-04-10T02:50:37;85550.56;;;2.46;67.45
41312;BME280;27061;41.648;24.568;2023-04-10T02:53:04;85548.09;;;2.73;67.76
41312;BME280;27061;41.648;24.568;2023-04-10T02:55:31;85546.53;;;2.51;68.18
41312;BME280;27061;41.648;24.568;2023-04-10T02:57:58;85659.91;;;3.15;69.13
41312;BME280;27061;41.648;24.568;2023-04-10T03:00:25;85624.09;;;2.88;69.19
41312;BME280;27061;41.648;24.568;2023-04-10T03:03:13;85476.75;;;1.72;69.49
41312;BME280;27061;41.648;24.568;2023-04-10T03:05:48;85392.81;;;1.08;70.23
41312;BME280;27061;41.648;24.568;2023-04-10T03:08:19;85430.13;;;1.52;71.07
41312;BME280;27061;41.648;24.568;2023-04-10T03:10:46;85561.66;;;2.63;71.29
41312;BME280;27061;41.648;24.568;2023-04-10T03:13:22;85548.66;;;2.61;69.27
41312;BME280;27061;41.648;24.568;2023-04-10T03:15:49;85525.13;;;2.28;68.55
41312;BME280;27061;41.648;24.568;2023-04-10T03:18:17;85629.84;;;3.19;68.40
41312;BME280;27061;41.648;24.568;2023-04-10T03:20:47;85550.56;;;2.46;69.77
41312;BME280;27061;41.648;24.568;2023-04-10T03:23:14;85635.34;;;3.23;69.51
41312;BME280;27061;41.648;24.568;2023-04-10T03:25:41;85567.16;;;2.65;70.23
41312;BME280;27061;41.648;24.568;2023-04-10T03:28:09;85570.75;;;2.85;68.84
41312;BME280;27061;41.648;24.568;2023-04-10T03:30:37;85478.59;;;2.17;68.14
41312;BME280;27061;41.648;24.568;2023-04-10T03:33:04;85455.25;;;2.04;69.29
41312;BME280;27061;41.648;24.568;2023-04-10T03:35:31;85550.63;;;2.54;69.79
41312;BME280;27061;41.648;24.568;2023-04-10T03:37:58;85354.78;;;1.20;69.71
41312;BME280;27061;41.648;24.568;2023-04-10T03:40:25;85562.47;;;2.77;69.96
41312;BME280;27061;41.648;24.568;2023-04-10T03:42:52;85655.84;;;3.20;70.51
41312;BME280;27061;41.648;24.568;2023-04-10T03:45:19;85447.81;;;1.46;70.64
41312;BME280;27061;41.648;24.568;2023-04-10T03:47:46;85455.72;;;1.82;68.92
41312;BME280;27061;41.648;24.568;2023-04-10T03:50:14;85472.75;;;1.81;69.06
41312;BME280;27061;41.648;24.568;2023-04-10T03:52:51;85510.72;;;2.23;71.57
41312;BME280;27061;41.648;24.568;2023-04-10T03:55:20;85563.63;;;2.52;71.20
41312;BME280;27061;41.648;24.568;2023-04-10T03:57:49;85552.75;;;2.60;70.44
41312;BME280;27061;41.648;24.568;2023-04-10T04:00:19;85565.28;;;2.83;68.86
41312;BME280;27061;41.648;24.568;2023-04-10T04:02:47;85543.13;;;2.53;70.21
41312;BME280;27061;41.648;24.568;2023-04-10T04:05:36;85562.44;;;2.71;69.62
41312;BME280;27061;41.648;24.568;2023-04-10T04:08:28;85464.75;;;1.99;70.80
41312;BME280;27061;41.648;24.568;2023-04-10T04:11:10;85558.28;;;2.68;70.12
41312;BME280;27061;41.648;24.568;2023-04-10T04:13:52;85488.13;;;2.16;69.89
41312;BME280;27061;41.648;24.568;2023-04-10T04:16:42;85574.66;;;2.66;69.52
41312;BME280;27061;41.648;24.568;2023-04-10T04:19:28;85561.69;;;2.67;69.52
41312;BME280;27061;41.648;24.568;2023-04-10T04:22:13;85569.22;;;2.68;68.47
41312;BME280;27061;41.648;24.568;2023-04-10T04:25:01;85654.78;;;3.57;68.42
41312;BME280;27061;41.648;24.568;2023-04-10T04:27:51;85536.41;;;2.66;68.32
41312;BME280;27061;41.648;24.568;2023-04-10T04:30:34;85525.34;;;2.52;68.23
41312;BME280;27061;41.648;24.568;2023-04-10T04:33:10;85486.81;;;2.19;68.23
41312;BME280;27061;41.648;24.568;2023-04-10T04:35:48;85560.97;;;2.62;70.77
41312;BME280;27061;41.648;24.568;2023-04-10T04:38:33;85682.00;;;3.39;67.35
41312;BME280;27061;41.648;24.568;2023-04-10T04:41:07;85478.31;;;1.91;67.49
41312;BME280;27061;41.648;24.568;2023-04-10T04:43:36;85654.34;;;3.05;69.79
41312;BME280;27061;41.648;24.568;2023-04-10T04:46:30;85557.84;;;2.24;69.87
41312;BME280;27061;41.648;24.568;2023-04-10T04:49:12;85658.59;;;3.22;68.66
41312;BME280;27061;41.648;24.568;2023-04-10T04:52:02;85485.91;;;1.99;68.28
41312;BME280;27061;41.648;24.568;2023-04-10T04:54:56;85515.41;;;2.12;68.51
41312;BME280;27061;41.648;24.568;2023-04-10T04:57:41;85452.00;;;1.54;71.38
41312;BME280;27061;41.648;24.568;2023-04-10T05:00:25;85588.44;;;2.76;69.89
41312;BME280;27061;41.648;24.568;2023-04-10T05:03:05;85544.97;;;2.30;70.78
41312;BME280;27061;41.648;24.568;2023-04-10T05:05:41;85489.91;;;1.90;70.80
41312;BME280;27061;41.648;24.568;2023-04-10T05:08:29;85479.88;;;2.08;69.76
41312;BME280;27061;41.648;24.568;2023-04-10T05:11:20;85551.56;;;2.79;66.74
41312;BME280;27061;41.648;24.568;2023-04-10T05:13:54;85426.28;;;1.75;66.56
41312;BME280;27061;41.648;24.568;2023-04-10T05:16:22;85450.97;;;1.85;66.77
41312;BME280;27061;41.648;24.568;2023-04-10T05:19:07;85437.25;;;1.77;68.20
41312;BME280;27061;41.648;24.568;2023-04-10T05:21:50;85438.66;;;1.80;68.40
41312;BME280;27061;41.648;24.568;2023-04-10T05:24:24;85675.44;;;3.71;67.14
41312;BME280;27061;41.648;24.568;2023-04-10T05:27:13;85578.13;;;2.71;68.66
41312;BME280;27061;41.648;24.568;2023-04-10T05:29:59;85514.34;;;2.44;66.54
41312;BME280;27061;41.648;24.568;2023-04-10T05:32:45;85665.06;;;3.59;68.04
41312;BME280;27061;41.648;24.568;2023-04-10T05:35:38;85572.72;;;2.75;66.17
41312;BME280;27061;41.648;24.568;2023-04-10T05:38:38;85535.84;;;2.09;68.37
41312;BME280;27061;41.648;24.568;2023-04-10T05:41:11;85592.22;;;2.45;69.87
41312;BME280;27061;41.648;24.568;2023-04-10T05:43:54;85666.72;;;3.14;69.77
41312;BME280;27061;41.648;24.568;2023-04-10T05:46:30;85697.09;;;3.44;69.19
41312;BME280;27061;41.648;24.568;2023-04-10T05:49:05;85415.09;;;1.48;69.36
41312;BME280;27061;41.648;24.568;2023-04-10T05:51:52;85633.13;;;3.03;70.03
41312;BME280;27061;41.648;24.568;2023-04-10T05:54:22;85417.88;;;1.53;66.27
41312;BME280;27061;41.648;24.568;2023-04-10T05:57:12;85457.94;;;1.98;67.92
41312;BME280;27061;41.648;24.568;2023-04-10T06:00:00;85683.63;;;3.73;65.50
41312;BME280;27061;41.648;24.568;2023-04-10T06:02:47;85574.81;;;2.80;65.44
41312;BME280;27061;41.648;24.568;2023-04-10T06:05:21;85679.56;;;3.76;66.72
41312;BME280;27061;41.648;24.568;2023-04-10T06:07:56;85444.25;;;1.96;66.89
41312;BME280;27061;41.648;24.568;2023-04-10T06:10:28;85618.97;;;3.29;68.39
41312;BME280;27061;41.648;24.568;2023-04-10T06:12:55;85555.69;;;2.82;69.09
41312;BME280;27061;41.648;24.568;2023-04-10T06:15:24;85475.88;;;2.19;65.81
41312;BME280;27061;41.648;24.568;2023-04-10T06:17:51;85700.91;;;3.93;65.88
41312;BME280;27061;41.648;24.568;2023-04-10T06:20:20;85694.03;;;3.86;68.62
41312;BME280;27061;41.648;24.568;2023-04-10T06:22:49;85451.22;;;2.13;67.04
41312;BME280;27061;41.648;24.568;2023-04-10T06:25:16;85605.38;;;3.37;67.70
41312;BME280;27061;41.648;24.568;2023-04-10T06:27:43;85428.47;;;1.87;67.49
41312;BME280;27061;41.648;24.568;2023-04-10T06:30:11;85532.50;;;2.85;64.92
41312;BME280;27061;41.648;24.568;2023-04-10T06:32:39;85465.03;;;2.28;65.91
41312;BME280;27061;41.648;24.568;2023-04-10T06:35:07;85483.00;;;2.51;65.84
41312;BME280;27061;41.648;24.568;2023-04-10T06:37:34;85544.94;;;3.03;65.26
41312;BME280;27061;41.648;24.568;2023-04-10T06:40:09;85679.00;;;3.89;67.18
41312;BME280;27061;41.648;24.568;2023-04-10T06:42:37;85517.19;;;2.54;66.98
41312;BME280;27061;41.648;24.568;2023-04-10T06:45:13;85514.53;;;2.64;67.65
41312;BME280;27061;41.648;24.568;2023-04-10T06:47:40;85488.41;;;2.47;67.92
41312;BME280;27061;41.648;24.568;2023-04-10T06:50:08;85443.75;;;2.16;66.96
41312;BME280;27061;41.648;24.568;2023-04-10T06:52:35;85553.09;;;3.01;66.42
41312;BME280;27061;41.648;24.568;2023-04-10T06:55:02;85575.19;;;3.25;65.42
41312;BME280;27061;41.648;24.568;2023-04-10T06:57:30;85482.94;;;2.47;65.80
41312;BME280;27061;41.648;24.568;2023-04-10T06:59:57;85681.13;;;4.01;65.93
41312;BME280;27061;41.648;24.568;2023-04-10T07:02:24;85471.34;;;2.48;64.90
41312;BME280;27061;41.648;24.568;2023-04-10T07:04:52;85684.69;;;4.22;63.66
41312;BME280;27061;41.648;24.568;2023-04-10T07:07:19;85686.75;;;4.23;64.25
41312;BME280;27061;41.648;24.568;2023-04-10T07:09:47;85593.03;;;3.34;65.59
41312;BME280;27061;41.648;24.568;2023-04-10T07:12:14;85536.56;;;2.84;64.38
41312;BME280;27061;41.648;24.568;2023-04-10T07:14:43;85590.25;;;3.30;67.14
41312;BME280;27061;41.648;24.568;2023-04-10T07:17:11;85605.38;;;3.41;66.22
41312;BME280;27061;41.648;24.568;2023-04-10T07:19:40;85480.44;;;2.73;66.76
41312;BME280;27061;41.648;24.568;2023-04-10T07:22:07;85589.00;;;3.45;66.77
41312;BME280;27061;41.648;24.568;2023-04-10T07:24:34;85679.22;;;4.28;66.82
41312;BME280;27061;41.648;24.568;2023-04-10T07:27:02;85470.88;;;2.76;67.33
41312;BME280;27061;41.648;24.568;2023-04-10T07:29:29;85688.22;;;4.40;68.09
41312;BME280;27061;41.648;24.568;2023-04-10T07:31:57;85502.50;;;3.00;69.65
41312;BME280;27061;41.648;24.568;2023-04-10T07:34:24;85489.44;;;2.90;66.45
41312;BME280;27061;41.648;24.568;2023-04-10T07:36:52;85435.31;;;2.70;65.60
41312;BME280;27061;41.648;24.568;2023-04-10T07:39:19;85567.97;;;3.72;66.66
41312;BME280;27061;41.648;24.568;2023-04-10T07:41:47;85686.97;;;4.68;67.06
41312;BME280;27061;41.648;24.568;2023-04-10T07:44:14;85482.81;;;3.17;65.49
41312;BME280;27061;41.648;24.568;2023-04-10T07:46:43;85575.66;;;4.00;65.58
41312;BME280;27061;41.648;24.568;2023-04-10T07:49:10;85680.16;;;4.75;67.16
41312;BME280;27061;41.648;24.568;2023-04-10T07:51:38;85484.97;;;3.39;67.75
41312;BME280;27061;41.648;24.568;2023-04-10T07:54:05;85494.63;;;3.50;68.55
41312;BME280;27061;41.648;24.568;2023-04-10T07:56:32;85680.25;;;5.01;67.90
41312;BME280;27061;41.648;24.568;2023-04-10T07:58:59;85553.13;;;4.18;67.54
41312;BME280;27061;41.648;24.568;2023-04-10T08:01:27;85670.69;;;5.08;67.00
41312;BME280;27061;41.648;24.568;2023-04-10T08:03:54;85685.78;;;5.20;67.03
41312;BME280;27061;41.648;24.568;2023-04-10T08:06:24;85452.16;;;3.37;63.18
41312;BME280;27061;41.648;24.568;2023-04-10T08:08:52;85442.50;;;3.24;65.10
41312;BME280;27061;41.648;24.568;2023-04-10T08:11:28;85603.31;;;4.61;65.89
41312;BME280;27061;41.648;24.568;2023-04-10T08:14:08;85577.19;;;4.33;64.12
41312;BME280;27061;41.648;24.568;2023-04-10T08:16:37;85555.16;;;4.11;64.26
41312;BME280;27061;41.648;24.568;2023-04-10T08:19:05;85524.88;;;3.77;62.32
41312;BME280;27061;41.648;24.568;2023-04-10T08:21:32;85630.66;;;4.47;64.72
41312;BME280;27061;41.648;24.568;2023-04-10T08:24:02;85442.28;;;2.89;63.48
41312;BME280;27061;41.648;24.568;2023-04-10T08:26:30;85472.69;;;3.38;65.45
41312;BME280;27061;41.648;24.568;2023-04-10T08:28:58;85652.09;;;4.91;65.30
41312;BME280;27061;41.648;24.568;2023-04-10T08:31:31;85435.66;;;3.23;60.68
41312;BME280;27061;41.648;24.568;2023-04-10T08:33:59;85498.13;;;3.65;60.83
41312;BME280;27061;41.648;24.568;2023-04-10T08:36:26;85677.53;;;5.11;64.63
41312;BME280;27061;41.648;24.568;2023-04-10T08:38:54;85582.03;;;4.43;65.06
41312;BME280;27061;41.648;24.568;2023-04-10T08:41:21;85566.22;;;4.31;65.41
41312;BME280;27061;41.648;24.568;2023-04-10T08:43:48;85436.53;;;3.64;65.66
41312;BME280;27061;41.648;24.568;2023-04-10T08:46:16;85642.56;;;5.18;64.43
41312;BME280;27061;41.648;24.568;2023-04-10T08:48:52;85676.25;;;5.49;63.85
41312;BME280;27061;41.648;24.568;2023-04-10T08:51:21;85577.28;;;4.68;64.46
41312;BME280;27061;41.648;24.568;2023-04-10T08:53:57;85674.88;;;5.48;64.60
41312;BME280;27061;41.648;24.568;2023-04-10T08:56:26;85435.84;;;3.72;65.09
41312;BME280;27061;41.648;24.568;2023-04-10T08:58:54;85445.47;;;3.83;66.53
41312;BME280;27061;41.648;24.568;2023-04-10T09:01:21;85414.66;;;3.68;65.88
41312;BME280;27061;41.648;24.568;2023-04-10T09:03:49;85683.81;;;5.63;66.27
41312;BME280;27061;41.648;24.568;2023-04-10T09:06:17;85595.19;;;5.01;65.35
41312;BME280;27061;41.648;24.568;2023-04-10T09:08:44;85501.13;;;4.36;65.56
41312;BME280;27061;41.648;24.568;2023-04-10T09:11:11;85672.16;;;5.70;63.85
41312;BME280;27061;41.648;24.568;2023-04-10T09:13:41;85500.44;;;4.35;65.11
41312;BME280;27061;41.648;24.568;2023-04-10T09:16:10;85438.66;;;3.86;64.92
41312;BME280;27061;41.648;24.568;2023-04-10T09:18:47;85548.53;;;4.83;62.31
41312;BME280;27061;41.648;24.568;2023-04-10T09:21:17;85481.22;;;4.25;63.83
41312;BME280;27061;41.648;24.568;2023-04-10T09:23:46;85430.44;;;3.86;64.55
41312;BME280;27061;41.648;24.568;2023-04-10T09:29:02;85663.94;;;5.70;63.08
41312;BME280;27061;41.648;24.568;2023-04-10T09:31:31;85600.03;;;5.17;64.13
41312;BME280;27061;41.648;24.568;2023-04-10T09:34:18;85659.09;;;5.63;64.38
41312;BME280;27061;41.648;24.568;2023-04-10T09:36:56;85577.38;;;5.12;63.05
41312;BME280;27061;41.648;24.568;2023-04-10T09:39:35;85426.34;;;3.93;62.42
41312;BME280;27061;41.648;24.568;2023-04-10T09:42:03;85473.03;;;4.35;63.16
41312;BME280;27061;41.648;24.568;2023-04-10T09:44:32;85659.78;;;5.73;64.08
41312;BME280;27061;41.648;24.568;2023-04-10T09:47:23;85502.56;;;4.65;65.06
41312;BME280;27061;41.648;24.568;2023-04-10T09:49:52;85423.63;;;3.97;64.27
41312;BME280;27061;41.648;24.568;2023-04-10T09:52:28;85453.13;;;4.19;62.63
41312;BME280;27061;41.648;24.568;2023-04-10T09:54:58;85431.19;;;4.02;63.45
41312;BME280;27061;41.648;24.568;2023-04-10T09:57:27;85420.88;;;3.93;64.02
41312;BME280;27061;41.648;24.568;2023-04-10T09:59:56;85502.56;;;4.59;65.04
41312;BME280;27061;41.648;24.568;2023-04-10T10:02:27;85470.31;;;4.39;62.83
41312;BME280;27061;41.648;24.568;2023-04-10T10:04:56;85422.94;;;3.98;62.34
41312;BME280;27061;41.648;24.568;2023-04-10T10:07:26;85470.28;;;4.29;63.64
41312;BME280;27061;41.648;24.568;2023-04-10T10:09:56;85459.34;;;4.31;63.50
41312;BME280;27061;41.648;24.568;2023-04-10T10:12:35;85420.91;;;4.01;63.55
41312;BME280;27061;41.648;24.568;2023-04-10T10:15:13;85484.06;;;4.62;62.15
41312;BME280;27061;41.648;24.568;2023-04-10T10:17:49;85654.97;;;5.74;63.52
41312;BME280;27061;41.648;24.568;2023-04-10T10:20:19;85662.53;;;5.83;64.53
41312;BME280;27061;41.648;24.568;2023-04-10T10:22:49;85495.69;;;4.66;65.09
41312;BME280;27061;41.648;24.568;2023-04-10T10:25:17;85508.75;;;4.78;66.02
41312;BME280;27061;41.648;24.568;2023-04-10T10:27:48;85538.94;;;5.00;65.35
41312;BME280;27061;41.648;24.568;2023-04-10T10:30:17;85457.28;;;4.46;66.00
41312;BME280;27061;41.648;24.568;2023-04-10T10:32:57;85573.94;;;5.20;66.76
41312;BME280;27061;41.648;24.568;2023-04-10T10:35:30;85406.53;;;3.98;66.27
41312;BME280;27061;41.648;24.568;2023-04-10T10:37:58;85577.38;;;5.12;65.96
41312;BME280;27061;41.648;24.568;2023-04-10T10:40:30;85462.06;;;4.27;66.34
41312;BME280;27061;41.648;24.568;2023-04-10T10:43:12;85536.19;;;4.84;66.38
41312;BME280;27061;41.648;24.568;2023-04-10T10:45:56;85405.13;;;3.89;67.18
41312;BME280;27061;41.648;24.568;2023-04-10T10:48:26;85657.06;;;5.59;66.15
41312;BME280;27061;41.648;24.568;2023-04-10T10:50:57;85516.94;;;4.52;66.49
41312;BME280;27061;41.648;24.568;2023-04-10T10:53:38;85663.91;;;5.76;67.24
41312;BME280;27061;41.648;24.568;2023-04-10T10:56:35;85650.88;;;5.81;64.21
41312;BME280;27061;41.648;24.568;2023-04-10T10:59:03;85459.97;;;4.12;65.31
41312;BME280;27061;41.648;24.568;2023-04-10T11:01:30;85415.38;;;3.81;62.20
41312;BME280;27061;41.648;24.568;2023-04-10T11:03:57;85442.16;;;4.13;64.08
41312;BME280;27061;41.648;24.568;2023-04-10T11:06:52;85537.56;;;4.81;65.43
41312;BME280;27061;41.648;24.568;2023-04-10T11:09:44;85651.53;;;5.63;63.42
41312;BME280;27061;41.648;24.568;2023-04-10T11:12:13;85559.41;;;4.47;62.85
41312;BME280;27061;41.648;24.568;2023-04-10T11:14:42;85466.09;;;3.98;64.92
41312;BME280;27061;41.648;24.568;2023-04-10T11:17:11;85529.94;;;4.41;65.13
41312;BME280;27061;41.648;24.568;2023-04-10T11:19:59;85551.25;;;4.77;64.64
41312;BME280;27061;41.648;24.568;2023-04-10T11:22:26;85400.19;;;3.45;66.96
41312;BME280;27061;41.648;24.568;2023-04-10T11:24:55;85398.81;;;3.44;67.86
41312;BME280;27061;41.648;24.568;2023-04-10T11:27:42;85382.41;;;3.46;68.07
41312;BME280;27061;41.648;24.568;2023-04-10T11:30:34;85554.03;;;4.87;68.94
41312;BME280;27061;41.648;24.568;2023-04-10T11:33:02;85440.78;;;4.14;68.78
41312;BME280;27061;41.648;24.568;2023-04-10T11:35:31;85399.59;;;3.73;69.08
41312;BME280;27061;41.648;24.568;2023-04-10T11:38:11;85405.09;;;3.83;68.33
41312;BME280;27061;41.648;24.568;2023-04-10T11:40:56;85547.88;;;4.87;68.03
41312;BME280;27061;41.648;24.568;2023-04-10T11:43:23;85547.16;;;4.98;67.68
41312;BME280;27061;41.648;24.568;2023-04-10T11:46:00;85394.88;;;3.98;66.88
41312;BME280;27061;41.648;24.568;2023-04-10T11:48:29;85375.72;;;4.00;67.80
41312;BME280;27061;41.648;24.568;2023-04-10T11:50:56;85555.44;;;5.06;68.24
41312;BME280;27061;41.648;24.568;2023-04-10T11:53:23;85643.34;;;5.90;68.51
41312;BME280;27061;41.648;24.568;2023-04-10T11:55:52;85506.03;;;5.04;68.12
41312;BME280;27061;41.648;24.568;2023-04-10T11:58:24;85616.53;;;5.78;66.66
41312;BME280;27061;41.648;24.568;2023-04-10T12:01:01;85529.38;;;5.28;67.16
41312;BME280;27061;41.648;24.568;2023-04-10T12:03:36;85488.19;;;4.91;67.33
41312;BME280;27061;41.648;24.568;2023-04-10T12:06:07;85515.63;;;5.22;67.68
41312;BME280;27061;41.648;24.568;2023-04-10T12:08:40;85620.66;;;6.05;67.90
41312;BME280;27061;41.648;24.568;2023-04-10T12:11:09;85495.75;;;5.09;66.98
41312;BME280;27061;41.648;24.568;2023-04-10T12:13:36;85602.13;;;6.08;66.65
41312;BME280;27061;41.648;24.568;2023-04-10T12:16:06;85403.19;;;4.63;66.40
41312;BME280;27061;41.648;24.568;2023-04-10T12:18:34;85607.59;;;6.18;67.31
41312;BME280;27061;41.648;24.568;2023-04-10T12:21:02;85427.84;;;4.89;67.16
41312;BME280;27061;41.648;24.568;2023-04-10T12:23:32;85387.41;;;4.47;67.18
41312;BME280;27061;41.648;24.568;2023-04-10T12:26:07;85602.75;;;6.27;67.26
41312;BME280;27061;41.648;24.568;2023-04-10T12:28:34;85379.88;;;4.41;67.04
41312;BME280;27061;41.648;24.568;2023-04-10T12:31:02;85362.72;;;4.27;67.50
41312;BME280;27061;41.648;24.568;2023-04-10T12:33:29;85466.25;;;5.05;66.97
41312;BME280;27061;41.648;24.568;2023-04-10T12:35:56;85462.81;;;5.15;67.15
41312;BME280;27061;41.648;24.568;2023-04-10T12:41:05;85510.16;;;5.48;66.21
41312;BME280;27061;41.648;24.568;2023-04-10T12:43:35;85349.72;;;4.31;66.52
41312;BME280;27061;41.648;24.568;2023-04-10T12:46:03;85442.25;;;4.98;67.53
41312;BME280;27061;41.648;24.568;2023-04-10T12:48:31;85478.63;;;5.08;67.23
41312;BME280;27061;41.648;24.568;2023-04-10T12:50:59;85333.94;;;4.08;66.99
41312;BME280;27061;41.648;24.568;2023-04-10T12:53:26;85451.19;;;5.08;65.88
41312;BME280;27061;41.648;24.568;2023-04-10T12:55:58;85597.97;;;6.17;65.64
41312;BME280;27061;41.648;24.568;2023-04-10T12:58:25;85441.56;;;4.97;67.25
41312;BME280;27061;41.648;24.568;2023-04-10T13:01:07;85349.69;;;4.09;67.87
41312;BME280;27061;41.648;24.568;2023-04-10T13:03:39;85523.88;;;5.50;67.11
41312;BME280;27061;41.648;24.568;2023-04-10T13:06:07;85357.25;;;4.29;66.43
41312;BME280;27061;41.648;24.568;2023-04-10T13:08:34;85381.94;;;4.51;67.17
41312;BME280;27061;41.648;24.568;2023-04-10T13:11:02;85506.03;;;5.41;67.64
41312;BME280;27061;41.648;24.568;2023-04-10T13:13:29;85334.66;;;4.20;66.95
41312;BME280;27061;41.648;24.568;2023-04-10T13:15:58;85505.34;;;5.40;66.35
41312;BME280;27061;41.648;24.568;2023-04-10T13:18:26;85486.81;;;5.33;66.86
41312;BME280;27061;41.648;24.568;2023-04-10T13:20:53;85352.47;;;4.39;65.26
41312;BME280;27061;41.648;24.568;2023-04-10T13:23:21;85393.56;;;4.70;65.65
41312;BME280;27061;41.648;24.568;2023-04-10T13:25:48;85403.16;;;4.77;66.60
41312;BME280;27061;41.648;24.568;2023-04-10T13:28:15;85344.25;;;4.44;64.16
41312;BME280;27061;41.648;24.568;2023-04-10T13:30:45;85571.91;;;5.94;65.51
41312;BME280;27061;41.648;24.568;2023-04-10T13:33:12;85393.59;;;4.62;66.17
41312;BME280;27061;41.648;24.568;2023-04-10T13:35:40;85514.94;;;5.47;66.66
41312;BME280;27061;41.648;24.568;2023-04-10T13:38:07;85349.72;;;4.25;67.26
41312;BME280;27061;41.648;24.568;2023-04-10T13:40:35;85455.28;;;5.01;68.04